KLM39K EHAM-LIML
Flight info
| Callsign | KLM39K |
|---|---|
| Flight time | 1h 23m |
| Altitude | 35000 |
| Route | EDUPO Z739 MISGO DCT ASBON DCT TUSUK DCT KRH DCT NATOR DCT TRA DCT RIPUS DCT GERSA DCT SOSON DCT ODINA |
| Aircraft | B739/M-SDE2E3FGHIRWXY/LB1 |
Departure
| Time | 2026-04-27 09:55 |
|---|---|
| Airport | Amsterdam Airport Schiphol (EHAM) |
Arrival
| Time | 2026-04-27 11:19 |
|---|---|
| Airport | Milano Linate Airport (LIML) |
| Time | Latitude | Longitude | Altitude | Speed | Heading |
|---|---|---|---|---|---|
| 2026-04-27 09:48 | 52.31786 | 4.74321 | -2 ft | 26 kts | 3° |
| 2026-04-27 09:49 | 52.31952 | 4.74336 | -2 ft | 10 kts | 1° |
| 2026-04-27 09:49 | 52.32022 | 4.74330 | -2 ft | 10 kts | 328° |
| 2026-04-27 09:49 | 52.32032 | 4.74206 | -2 ft | 14 kts | 269° |
| 2026-04-27 09:49 | 52.32038 | 4.74005 | -3 ft | 21 kts | 273° |
| 2026-04-27 09:50 | 52.32047 | 4.73752 | -2 ft | 22 kts | 274° |
| 2026-04-27 09:50 | 52.32055 | 4.73502 | -2 ft | 22 kts | 273° |
| 2026-04-27 09:50 | 52.32128 | 4.73301 | -2 ft | 21 kts | 320° |
| 2026-04-27 09:50 | 52.32237 | 4.73146 | -2 ft | 20 kts | 319° |
| 2026-04-27 09:51 | 52.32342 | 4.72997 | -2 ft | 20 kts | 320° |
| 2026-04-27 09:51 | 52.32445 | 4.72854 | -2 ft | 19 kts | 320° |
| 2026-04-27 09:51 | 52.32544 | 4.72715 | -2 ft | 18 kts | 319° |
| 2026-04-27 09:51 | 52.32640 | 4.72580 | -2 ft | 18 kts | 317° |
| 2026-04-27 09:52 | 52.32725 | 4.72436 | -2 ft | 17 kts | 311° |
| 2026-04-27 09:52 | 52.32802 | 4.72291 | -2 ft | 17 kts | 311° |
| 2026-04-27 09:52 | 52.32877 | 4.72152 | -2 ft | 16 kts | 311° |
| 2026-04-27 09:52 | 52.32950 | 4.72020 | -2 ft | 15 kts | 312° |
| 2026-04-27 09:53 | 52.33018 | 4.71890 | -2 ft | 15 kts | 312° |
| 2026-04-27 09:53 | 52.33087 | 4.71765 | -2 ft | 15 kts | 311° |
| 2026-04-27 09:53 | 52.33146 | 4.71616 | -2 ft | 16 kts | 281° |
| 2026-04-27 09:53 | 52.33136 | 4.71433 | -2 ft | 16 kts | 288° |
| 2026-04-27 09:54 | 52.33208 | 4.71282 | -2 ft | 17 kts | 311° |
| 2026-04-27 09:54 | 52.33288 | 4.71132 | -2 ft | 18 kts | 311° |
| 2026-04-27 09:54 | 52.33375 | 4.70973 | -3 ft | 19 kts | 314° |
| 2026-04-27 09:54 | 52.33554 | 4.70956 | -2 ft | 47 kts | 3° |
| 2026-04-27 09:55 | 52.34117 | 4.71008 | -5 ft | 111 kts | 3° |
| 2026-04-27 09:55 | 52.35050 | 4.71093 | -1 ft | 156 kts | 5° |
| 2026-04-27 09:55 | 52.37387 | 4.71362 | 943 ft | 169 kts | 7° |
| 2026-04-27 09:56 | 52.38581 | 4.71485 | 1520 ft | 174 kts | 5° |
| 2026-04-27 09:56 | 52.39808 | 4.71546 | 2092 ft | 178 kts | 4° |
| 2026-04-27 09:56 | 52.41125 | 4.71665 | 2352 ft | 202 kts | 4° |
| 2026-04-27 09:56 | 52.42582 | 4.71802 | 2736 ft | 213 kts | 4° |
| 2026-04-27 09:57 | 52.44074 | 4.71942 | 3286 ft | 217 kts | 4° |
| 2026-04-27 09:57 | 52.45600 | 4.72084 | 3892 ft | 224 kts | 3° |
| 2026-04-27 09:57 | 52.47149 | 4.72224 | 4565 ft | 225 kts | 3° |
| 2026-04-27 09:57 | 52.48721 | 4.72365 | 5378 ft | 223 kts | 3° |
| 2026-04-27 09:58 | 52.50261 | 4.72513 | 6024 ft | 228 kts | 6° |
| 2026-04-27 09:58 | 52.51713 | 4.73485 | 6636 ft | 231 kts | 43° |
| 2026-04-27 09:58 | 52.52490 | 4.75795 | 7208 ft | 238 kts | 79° |
| 2026-04-27 09:58 | 52.52414 | 4.78515 | 7794 ft | 243 kts | 107° |
| 2026-04-27 09:59 | 52.51639 | 4.80979 | 8418 ft | 245 kts | 126° |
| 2026-04-27 09:59 | 52.50569 | 4.83167 | 9010 ft | 250 kts | 130° |
| 2026-04-27 09:59 | 52.49378 | 4.85424 | 9226 ft | 272 kts | 131° |
| 2026-04-27 09:59 | 52.48088 | 4.87838 | 9519 ft | 289 kts | 131° |
| 2026-04-27 10:00 | 52.46751 | 4.90353 | 10072 ft | 296 kts | 131° |
| 2026-04-27 10:00 | 52.45391 | 4.92927 | 10615 ft | 304 kts | 131° |
| 2026-04-27 10:00 | 52.43962 | 4.95645 | 10776 ft | 325 kts | 131° |
| 2026-04-27 10:00 | 52.42439 | 4.98553 | 10918 ft | 346 kts | 131° |
| 2026-04-27 10:01 | 52.40844 | 5.01608 | 11263 ft | 358 kts | 131° |
| 2026-04-27 10:01 | 52.39209 | 5.04746 | 11738 ft | 366 kts | 131° |
| 2026-04-27 10:01 | 52.37551 | 5.07931 | 12354 ft | 369 kts | 131° |
| 2026-04-27 10:01 | 52.35881 | 5.11136 | 12974 ft | 372 kts | 131° |
| 2026-04-27 10:02 | 52.34193 | 5.14374 | 13595 ft | 376 kts | 132° |
| 2026-04-27 10:02 | 52.32484 | 5.17648 | 14200 ft | 381 kts | 132° |
| 2026-04-27 10:02 | 52.30753 | 5.20961 | 14754 ft | 385 kts | 132° |
| 2026-04-27 10:02 | 52.29003 | 5.24307 | 15332 ft | 390 kts | 132° |
| 2026-04-27 10:03 | 52.27233 | 5.27685 | 15894 ft | 394 kts | 132° |
| 2026-04-27 10:03 | 52.25441 | 5.31101 | 16446 ft | 399 kts | 132° |
| 2026-04-27 10:03 | 52.23626 | 5.34558 | 17005 ft | 403 kts | 132° |
| 2026-04-27 10:03 | 52.21814 | 5.38003 | 17544 ft | 407 kts | 132° |
| 2026-04-27 10:04 | 52.19957 | 5.41528 | 18087 ft | 412 kts | 132° |
| 2026-04-27 10:04 | 52.18080 | 5.45086 | 18634 ft | 416 kts | 132° |
| 2026-04-27 10:04 | 52.16185 | 5.48675 | 19135 ft | 419 kts | 133° |
| 2026-04-27 10:04 | 52.14247 | 5.52339 | 19575 ft | 424 kts | 133° |
| 2026-04-27 10:05 | 52.12311 | 5.55993 | 20023 ft | 428 kts | 133° |
| 2026-04-27 10:05 | 52.10387 | 5.59620 | 20550 ft | 430 kts | 133° |
| 2026-04-27 10:05 | 52.08430 | 5.63304 | 21089 ft | 432 kts | 133° |
| 2026-04-27 10:05 | 52.06461 | 5.67007 | 21594 ft | 434 kts | 133° |
| 2026-04-27 10:06 | 52.04474 | 5.70735 | 22084 ft | 437 kts | 133° |
| 2026-04-27 10:06 | 52.02477 | 5.74477 | 22579 ft | 440 kts | 134° |
| 2026-04-27 10:06 | 52.00435 | 5.78299 | 23084 ft | 443 kts | 134° |
| 2026-04-27 10:06 | 51.98440 | 5.82027 | 23539 ft | 446 kts | 134° |
| 2026-04-27 10:07 | 51.96400 | 5.85834 | 23982 ft | 448 kts | 134° |
| 2026-04-27 10:07 | 51.94344 | 5.89664 | 24316 ft | 453 kts | 134° |
| 2026-04-27 10:07 | 51.92264 | 5.93532 | 24644 ft | 457 kts | 134° |
| 2026-04-27 10:07 | 51.90176 | 5.97414 | 25019 ft | 459 kts | 134° |
| 2026-04-27 10:08 | 51.88072 | 6.01319 | 25400 ft | 461 kts | 134° |
| 2026-04-27 10:08 | 51.85954 | 6.05240 | 25771 ft | 464 kts | 134° |
| 2026-04-27 10:08 | 51.83823 | 6.09165 | 26120 ft | 466 kts | 134° |
| 2026-04-27 10:08 | 51.81673 | 6.13099 | 26465 ft | 469 kts | 135° |
| 2026-04-27 10:09 | 51.79497 | 6.17072 | 26802 ft | 472 kts | 135° |
| 2026-04-27 10:09 | 51.77317 | 6.21050 | 27142 ft | 475 kts | 135° |
| 2026-04-27 10:09 | 51.75120 | 6.25059 | 27489 ft | 478 kts | 135° |
| 2026-04-27 10:09 | 51.72916 | 6.29082 | 27825 ft | 480 kts | 135° |
| 2026-04-27 10:10 | 51.70697 | 6.33131 | 28154 ft | 483 kts | 134° |
| 2026-04-27 10:10 | 51.68466 | 6.37198 | 28499 ft | 485 kts | 135° |
| 2026-04-27 10:10 | 51.66225 | 6.41276 | 28826 ft | 488 kts | 135° |
| 2026-04-27 10:10 | 51.63967 | 6.45375 | 29134 ft | 490 kts | 135° |
| 2026-04-27 10:11 | 51.61699 | 6.49483 | 29427 ft | 492 kts | 135° |
| 2026-04-27 10:11 | 51.60186 | 6.52219 | 29705 ft | 492 kts | 135° |
| 2026-04-27 10:11 | 51.57917 | 6.56320 | 30194 ft | 490 kts | 135° |
| 2026-04-27 10:11 | 51.55658 | 6.60398 | 30622 ft | 488 kts | 135° |
| 2026-04-27 10:12 | 51.53400 | 6.64469 | 30990 ft | 488 kts | 135° |
| 2026-04-27 10:12 | 51.51142 | 6.68531 | 31338 ft | 487 kts | 135° |
| 2026-04-27 10:12 | 51.48888 | 6.72582 | 31700 ft | 486 kts | 135° |
| 2026-04-27 10:12 | 51.46635 | 6.76625 | 32063 ft | 485 kts | 135° |
| 2026-04-27 10:13 | 51.44384 | 6.80658 | 32405 ft | 485 kts | 135° |
| 2026-04-27 10:13 | 51.42136 | 6.84669 | 32745 ft | 484 kts | 136° |
| 2026-04-27 10:13 | 51.39717 | 6.88372 | 33077 ft | 478 kts | 145° |
| 2026-04-27 10:13 | 51.37007 | 6.91385 | 33405 ft | 472 kts | 153° |
| 2026-04-27 10:14 | 51.34216 | 6.94137 | 33747 ft | 471 kts | 153° |
| 2026-04-27 10:14 | 51.31423 | 6.96866 | 34067 ft | 470 kts | 153° |
| 2026-04-27 10:14 | 51.28638 | 6.99596 | 34370 ft | 469 kts | 153° |
| 2026-04-27 10:14 | 51.25865 | 7.02335 | 34655 ft | 469 kts | 153° |
| 2026-04-27 10:15 | 51.23097 | 7.05087 | 34900 ft | 469 kts | 152° |
| 2026-04-27 10:15 | 51.20365 | 7.07812 | 35107 ft | 469 kts | 152° |
| 2026-04-27 10:15 | 51.17566 | 7.10608 | 35276 ft | 470 kts | 152° |
| 2026-04-27 10:15 | 51.14820 | 7.13349 | 35245 ft | 472 kts | 152° |
| 2026-04-27 10:16 | 51.09271 | 7.18881 | 35248 ft | 469 kts | 152° |
| 2026-04-27 10:16 | 51.03744 | 7.24371 | 35258 ft | 467 kts | 152° |
| 2026-04-27 10:17 | 50.98235 | 7.29825 | 35270 ft | 466 kts | 152° |
| 2026-04-27 10:17 | 50.92732 | 7.35256 | 35267 ft | 466 kts | 152° |
| 2026-04-27 10:18 | 50.87225 | 7.40676 | 35263 ft | 466 kts | 152° |
| 2026-04-27 10:18 | 50.81709 | 7.46092 | 35271 ft | 467 kts | 152° |
| 2026-04-27 10:19 | 50.76180 | 7.51505 | 35255 ft | 468 kts | 152° |
| 2026-04-27 10:19 | 50.70640 | 7.56947 | 35256 ft | 470 kts | 151° |
| 2026-04-27 10:20 | 50.65167 | 7.62605 | 35260 ft | 471 kts | 150° |
| 2026-04-27 10:20 | 50.59697 | 7.68322 | 35247 ft | 472 kts | 150° |
| 2026-04-27 10:21 | 50.54209 | 7.74008 | 35249 ft | 473 kts | 150° |
| 2026-04-27 10:21 | 50.48703 | 7.79673 | 35258 ft | 473 kts | 150° |
| 2026-04-27 10:22 | 50.43193 | 7.85321 | 35255 ft | 473 kts | 150° |
| 2026-04-27 10:22 | 50.37672 | 7.90964 | 35235 ft | 474 kts | 150° |
| 2026-04-27 10:23 | 50.32154 | 7.96591 | 35249 ft | 473 kts | 150° |
| 2026-04-27 10:23 | 50.26626 | 8.02213 | 35236 ft | 474 kts | 150° |
| 2026-04-27 10:24 | 50.21103 | 8.07816 | 35224 ft | 473 kts | 150° |
| 2026-04-27 10:24 | 50.15577 | 8.13373 | 35217 ft | 472 kts | 153° |
| 2026-04-27 10:25 | 50.09590 | 8.17150 | 35206 ft | 460 kts | 171° |
| 2026-04-27 10:25 | 50.03360 | 8.19448 | 35204 ft | 460 kts | 171° |
| 2026-04-27 10:26 | 49.97122 | 8.21745 | 35219 ft | 461 kts | 171° |
| 2026-04-27 10:26 | 49.90870 | 8.24104 | 35247 ft | 463 kts | 170° |
| 2026-04-27 10:27 | 49.84609 | 8.26489 | 35241 ft | 464 kts | 170° |
| 2026-04-27 10:27 | 49.78326 | 8.28882 | 35242 ft | 466 kts | 170° |
| 2026-04-27 10:28 | 49.72023 | 8.31274 | 35237 ft | 467 kts | 170° |
| 2026-04-27 10:28 | 49.65713 | 8.33661 | 35219 ft | 467 kts | 170° |
| 2026-04-27 10:29 | 49.59389 | 8.36046 | 35228 ft | 468 kts | 170° |
| 2026-04-27 10:29 | 49.53105 | 8.38410 | 35226 ft | 468 kts | 170° |
| 2026-04-27 10:30 | 49.46737 | 8.40799 | 35225 ft | 468 kts | 170° |
| 2026-04-27 10:30 | 49.40461 | 8.43148 | 35214 ft | 467 kts | 170° |
| 2026-04-27 10:31 | 49.34148 | 8.45504 | 35233 ft | 466 kts | 170° |
| 2026-04-27 10:31 | 49.27852 | 8.47847 | 35228 ft | 466 kts | 170° |
| 2026-04-27 10:32 | 49.21562 | 8.50183 | 35215 ft | 465 kts | 170° |
| 2026-04-27 10:32 | 49.15280 | 8.52509 | 35203 ft | 464 kts | 169° |
| 2026-04-27 10:33 | 49.09002 | 8.54828 | 35202 ft | 464 kts | 170° |
| 2026-04-27 10:33 | 49.02728 | 8.57115 | 35192 ft | 463 kts | 173° |
| 2026-04-27 10:34 | 48.96391 | 8.57512 | 35186 ft | 453 kts | 191° |
| 2026-04-27 10:34 | 48.90260 | 8.55607 | 35197 ft | 450 kts | 197° |
| 2026-04-27 10:35 | 48.84143 | 8.53532 | 35200 ft | 451 kts | 196° |
| 2026-04-27 10:35 | 48.78004 | 8.51511 | 35188 ft | 452 kts | 196° |
| 2026-04-27 10:36 | 48.71846 | 8.49525 | 35184 ft | 453 kts | 196° |
| 2026-04-27 10:36 | 48.65680 | 8.47550 | 35193 ft | 453 kts | 196° |
| 2026-04-27 10:37 | 48.59514 | 8.45578 | 35177 ft | 453 kts | 196° |
| 2026-04-27 10:37 | 48.53348 | 8.43610 | 35186 ft | 453 kts | 196° |
| 2026-04-27 10:38 | 48.47185 | 8.41647 | 35179 ft | 452 kts | 196° |
| 2026-04-27 10:38 | 48.41026 | 8.39690 | 35184 ft | 452 kts | 196° |
| 2026-04-27 10:39 | 48.34878 | 8.37741 | 35186 ft | 452 kts | 196° |
| 2026-04-27 10:39 | 48.28727 | 8.35796 | 35176 ft | 452 kts | 195° |
| 2026-04-27 10:40 | 48.22578 | 8.33856 | 35181 ft | 451 kts | 195° |
| 2026-04-27 10:40 | 48.16355 | 8.32493 | 35181 ft | 456 kts | 184° |
| 2026-04-27 10:41 | 48.10015 | 8.33612 | 35186 ft | 461 kts | 173° |
| 2026-04-27 10:41 | 48.03693 | 8.35274 | 35173 ft | 461 kts | 173° |
| 2026-04-27 10:42 | 47.97362 | 8.36871 | 35187 ft | 461 kts | 174° |
| 2026-04-27 10:42 | 47.91074 | 8.38398 | 35165 ft | 461 kts | 173° |
| 2026-04-27 10:43 | 47.84736 | 8.39921 | 35184 ft | 461 kts | 174° |
| 2026-04-27 10:43 | 47.78395 | 8.41445 | 35187 ft | 462 kts | 174° |
| 2026-04-27 10:44 | 47.72047 | 8.42969 | 35195 ft | 462 kts | 173° |
| 2026-04-27 10:44 | 47.65672 | 8.44324 | 35184 ft | 462 kts | 176° |
| 2026-04-27 10:45 | 47.59265 | 8.45225 | 35182 ft | 463 kts | 177° |
| 2026-04-27 10:45 | 47.52848 | 8.46092 | 35190 ft | 463 kts | 177° |
| 2026-04-27 10:46 | 47.46425 | 8.47013 | 35176 ft | 464 kts | 176° |
| 2026-04-27 10:46 | 47.39993 | 8.47957 | 35187 ft | 464 kts | 176° |
| 2026-04-27 10:47 | 47.33560 | 8.48899 | 35188 ft | 465 kts | 176° |
| 2026-04-27 10:47 | 47.27115 | 8.49837 | 35173 ft | 466 kts | 176° |
| 2026-04-27 10:48 | 47.20674 | 8.50773 | 35176 ft | 465 kts | 176° |
| 2026-04-27 10:48 | 47.14228 | 8.51707 | 35191 ft | 465 kts | 176° |
| 2026-04-27 10:49 | 47.07791 | 8.52638 | 35188 ft | 465 kts | 176° |
| 2026-04-27 10:49 | 47.01351 | 8.53567 | 35183 ft | 465 kts | 176° |
| 2026-04-27 10:50 | 46.94917 | 8.54496 | 35188 ft | 464 kts | 176° |
| 2026-04-27 10:50 | 46.88487 | 8.55422 | 35176 ft | 464 kts | 176° |
| 2026-04-27 10:51 | 46.82111 | 8.56339 | 35196 ft | 463 kts | 176° |
| 2026-04-27 10:51 | 46.78894 | 8.56799 | 34836 ft | 470 kts | 176° |
| 2026-04-27 10:51 | 46.75609 | 8.57268 | 34146 ft | 475 kts | 175° |
| 2026-04-27 10:52 | 46.72326 | 8.57739 | 33341 ft | 474 kts | 175° |
| 2026-04-27 10:52 | 46.69064 | 8.58207 | 32851 ft | 467 kts | 176° |
| 2026-04-27 10:52 | 46.65850 | 8.58667 | 32265 ft | 462 kts | 176° |
| 2026-04-27 10:52 | 46.62665 | 8.59121 | 31721 ft | 457 kts | 176° |
| 2026-04-27 10:53 | 46.59510 | 8.59570 | 31195 ft | 453 kts | 176° |
| 2026-04-27 10:53 | 46.53247 | 8.60462 | 30117 ft | 445 kts | 176° |
| 2026-04-27 10:53 | 46.50223 | 8.60891 | 29545 ft | 441 kts | 176° |
| 2026-04-27 10:54 | 46.47188 | 8.61322 | 29004 ft | 435 kts | 176° |
| 2026-04-27 10:54 | 46.44193 | 8.61746 | 28483 ft | 430 kts | 176° |
| 2026-04-27 10:54 | 46.41233 | 8.62165 | 27980 ft | 425 kts | 176° |
| 2026-04-27 10:54 | 46.38302 | 8.62579 | 27439 ft | 421 kts | 176° |
| 2026-04-27 10:55 | 46.35399 | 8.62989 | 26956 ft | 417 kts | 176° |
| 2026-04-27 10:55 | 46.32522 | 8.63395 | 26434 ft | 415 kts | 176° |
| 2026-04-27 10:55 | 46.29656 | 8.63798 | 25932 ft | 412 kts | 176° |
| 2026-04-27 10:55 | 46.26821 | 8.64197 | 25447 ft | 408 kts | 176° |
| 2026-04-27 10:56 | 46.24001 | 8.64593 | 24940 ft | 405 kts | 176° |
| 2026-04-27 10:56 | 46.21207 | 8.64986 | 24477 ft | 402 kts | 176° |
| 2026-04-27 10:56 | 46.18426 | 8.65376 | 23989 ft | 400 kts | 176° |
| 2026-04-27 10:56 | 46.15664 | 8.65763 | 23462 ft | 398 kts | 176° |
| 2026-04-27 10:57 | 46.12913 | 8.66148 | 22926 ft | 396 kts | 176° |
| 2026-04-27 10:57 | 46.11104 | 8.66449 | 22570 ft | 394 kts | 171° |
| 2026-04-27 10:57 | 46.08544 | 8.67773 | 22125 ft | 389 kts | 152° |
| 2026-04-27 10:57 | 46.06198 | 8.69660 | 21662 ft | 385 kts | 152° |
| 2026-04-27 10:58 | 46.03869 | 8.71542 | 21182 ft | 383 kts | 152° |
| 2026-04-27 10:58 | 46.01548 | 8.73401 | 20706 ft | 380 kts | 152° |
| 2026-04-27 10:58 | 45.99234 | 8.75236 | 20256 ft | 378 kts | 152° |
| 2026-04-27 10:58 | 45.96935 | 8.77046 | 19795 ft | 376 kts | 152° |
| 2026-04-27 10:59 | 45.94641 | 8.78843 | 19332 ft | 375 kts | 152° |
| 2026-04-27 10:59 | 45.92356 | 8.80629 | 18883 ft | 373 kts | 152° |
| 2026-04-27 10:59 | 45.90075 | 8.82408 | 18407 ft | 372 kts | 152° |
| 2026-04-27 11:00 | 45.85544 | 8.85938 | 17421 ft | 368 kts | 152° |
| 2026-04-27 11:00 | 45.83330 | 8.87661 | 17281 ft | 356 kts | 152° |
| 2026-04-27 11:00 | 45.81179 | 8.89332 | 17107 ft | 346 kts | 152° |
| 2026-04-27 11:00 | 45.79090 | 8.90954 | 16866 ft | 339 kts | 152° |
| 2026-04-27 11:01 | 45.77021 | 8.92557 | 16486 ft | 337 kts | 152° |
| 2026-04-27 11:01 | 45.74967 | 8.94147 | 16105 ft | 334 kts | 152° |
| 2026-04-27 11:01 | 45.72926 | 8.95724 | 15734 ft | 332 kts | 152° |
| 2026-04-27 11:01 | 45.70902 | 8.97289 | 15368 ft | 330 kts | 152° |
| 2026-04-27 11:02 | 45.68886 | 8.98848 | 15004 ft | 329 kts | 152° |
| 2026-04-27 11:02 | 45.66876 | 9.00400 | 14624 ft | 327 kts | 152° |
| 2026-04-27 11:02 | 45.64875 | 9.01942 | 14253 ft | 326 kts | 152° |
| 2026-04-27 11:02 | 45.62886 | 9.03472 | 13871 ft | 323 kts | 152° |
| 2026-04-27 11:03 | 45.60934 | 9.04972 | 13438 ft | 314 kts | 152° |
| 2026-04-27 11:03 | 45.59034 | 9.06430 | 13069 ft | 306 kts | 152° |
| 2026-04-27 11:03 | 45.57170 | 9.07861 | 12717 ft | 303 kts | 152° |
| 2026-04-27 11:03 | 45.55315 | 9.09282 | 12427 ft | 301 kts | 152° |
| 2026-04-27 11:04 | 45.53501 | 9.10671 | 12304 ft | 291 kts | 152° |
| 2026-04-27 11:04 | 45.51741 | 9.12017 | 12163 ft | 283 kts | 153° |
| 2026-04-27 11:04 | 45.49923 | 9.12891 | 11981 ft | 274 kts | 176° |
| 2026-04-27 11:04 | 45.48048 | 9.13079 | 11859 ft | 271 kts | 177° |
| 2026-04-27 11:05 | 45.46146 | 9.13267 | 11665 ft | 275 kts | 177° |
| 2026-04-27 11:05 | 45.44224 | 9.13466 | 11498 ft | 279 kts | 177° |
| 2026-04-27 11:05 | 45.42283 | 9.13674 | 11304 ft | 280 kts | 176° |
| 2026-04-27 11:05 | 45.40366 | 9.13883 | 11116 ft | 280 kts | 176° |
| 2026-04-27 11:06 | 45.38429 | 9.14100 | 10930 ft | 279 kts | 176° |
| 2026-04-27 11:06 | 45.36501 | 9.14312 | 10756 ft | 278 kts | 176° |
| 2026-04-27 11:06 | 45.34577 | 9.14529 | 10563 ft | 277 kts | 176° |
| 2026-04-27 11:06 | 45.32657 | 9.14744 | 10385 ft | 277 kts | 176° |
| 2026-04-27 11:07 | 45.30743 | 9.14957 | 10198 ft | 276 kts | 176° |
| 2026-04-27 11:07 | 45.28837 | 9.15169 | 10015 ft | 273 kts | 176° |
| 2026-04-27 11:07 | 45.26953 | 9.15382 | 9807 ft | 269 kts | 176° |
| 2026-04-27 11:07 | 45.25102 | 9.15589 | 9620 ft | 264 kts | 176° |
| 2026-04-27 11:08 | 45.23287 | 9.15792 | 9419 ft | 259 kts | 176° |
| 2026-04-27 11:08 | 45.21514 | 9.15989 | 9252 ft | 253 kts | 176° |
| 2026-04-27 11:08 | 45.19787 | 9.16178 | 9098 ft | 246 kts | 176° |
| 2026-04-27 11:08 | 45.18094 | 9.16366 | 8940 ft | 240 kts | 176° |
| 2026-04-27 11:09 | 45.16445 | 9.16545 | 8779 ft | 236 kts | 176° |
| 2026-04-27 11:09 | 45.14806 | 9.16724 | 8610 ft | 237 kts | 176° |
| 2026-04-27 11:09 | 45.13142 | 9.16909 | 8357 ft | 241 kts | 176° |
| 2026-04-27 11:09 | 45.11468 | 9.17097 | 8125 ft | 242 kts | 176° |
| 2026-04-27 11:10 | 45.09790 | 9.17286 | 7876 ft | 241 kts | 176° |
| 2026-04-27 11:10 | 45.08128 | 9.17476 | 7621 ft | 238 kts | 176° |
| 2026-04-27 11:10 | 45.06496 | 9.17779 | 7356 ft | 237 kts | 160° |
| 2026-04-27 11:10 | 45.05233 | 9.19180 | 7097 ft | 234 kts | 119° |
| 2026-04-27 11:11 | 45.04820 | 9.21355 | 6877 ft | 232 kts | 90° |
| 2026-04-27 11:11 | 45.05144 | 9.23578 | 6633 ft | 235 kts | 63° |
| 2026-04-27 11:11 | 45.06181 | 9.25343 | 6392 ft | 237 kts | 35° |
| 2026-04-27 11:11 | 45.07691 | 9.26255 | 6149 ft | 239 kts | 11° |
| 2026-04-27 11:12 | 45.09331 | 9.26666 | 5905 ft | 239 kts | 9° |
| 2026-04-27 11:12 | 45.10954 | 9.27108 | 5644 ft | 237 kts | 19° |
| 2026-04-27 11:12 | 45.12319 | 9.28356 | 5377 ft | 235 kts | 47° |
| 2026-04-27 11:12 | 45.13537 | 9.29869 | 5127 ft | 233 kts | 33° |
| 2026-04-27 11:13 | 45.15018 | 9.30708 | 4853 ft | 231 kts | 1° |
| 2026-04-27 11:13 | 45.16585 | 9.30556 | 4674 ft | 222 kts | 356° |
| 2026-04-27 11:13 | 45.18113 | 9.30458 | 4397 ft | 218 kts | 358° |
| 2026-04-27 11:13 | 45.19606 | 9.30363 | 4234 ft | 209 kts | 356° |
| 2026-04-27 11:14 | 45.21041 | 9.30229 | 4245 ft | 206 kts | 356° |
| 2026-04-27 11:14 | 45.22461 | 9.30081 | 4234 ft | 204 kts | 356° |
| 2026-04-27 11:14 | 45.23839 | 9.29932 | 4143 ft | 199 kts | 356° |
| 2026-04-27 11:14 | 45.25235 | 9.29783 | 3892 ft | 197 kts | 356° |
| 2026-04-27 11:15 | 45.26595 | 9.29635 | 3641 ft | 195 kts | 356° |
| 2026-04-27 11:15 | 45.27935 | 9.29490 | 3390 ft | 191 kts | 357° |
| 2026-04-27 11:15 | 45.29227 | 9.29350 | 3150 ft | 180 kts | 356° |
| 2026-04-27 11:15 | 45.30428 | 9.29221 | 2908 ft | 171 kts | 357° |
| 2026-04-27 11:16 | 45.31621 | 9.29097 | 2683 ft | 173 kts | 357° |
| 2026-04-27 11:16 | 45.32823 | 9.28964 | 2501 ft | 166 kts | 356° |
| 2026-04-27 11:16 | 45.33962 | 9.28841 | 2224 ft | 165 kts | 356° |
| 2026-04-27 11:16 | 45.35114 | 9.28717 | 2001 ft | 166 kts | 357° |
| 2026-04-27 11:17 | 45.36263 | 9.28592 | 1802 ft | 166 kts | 356° |
| 2026-04-27 11:17 | 45.37404 | 9.28472 | 1579 ft | 166 kts | 356° |
| 2026-04-27 11:17 | 45.38544 | 9.28348 | 1355 ft | 163 kts | 357° |
| 2026-04-27 11:17 | 45.39667 | 9.28228 | 1158 ft | 161 kts | 357° |
| 2026-04-27 11:18 | 45.40794 | 9.28091 | 897 ft | 163 kts | 357° |
| 2026-04-27 11:18 | 45.41910 | 9.27954 | 696 ft | 158 kts | 357° |
| 2026-04-27 11:18 | 45.43008 | 9.27844 | 479 ft | 158 kts | 358° |
| 2026-04-27 11:18 | 45.44089 | 9.27747 | 359 ft | 149 kts | 358° |
| 2026-04-27 11:19 | 45.44932 | 9.27660 | 367 ft | 93 kts | 356° |
| 2026-04-27 11:19 | 45.45367 | 9.27614 | 359 ft | 32 kts | 354° |
| 2026-04-27 11:19 | 45.45495 | 9.27597 | 359 ft | 5 kts | 68° |
| 2026-04-27 11:19 | 45.45469 | 9.27624 | 358 ft | 6 kts | 172° |
| 2026-04-27 11:20 | 45.45423 | 9.27633 | 358 ft | 8 kts | 170° |
| 2026-04-27 11:20 | 45.45400 | 9.27692 | 357 ft | 8 kts | 78° |
| 2026-04-27 11:20 | 45.45433 | 9.27752 | 359 ft | 8 kts | 46° |
| 2026-04-27 11:20 | 45.45442 | 9.27765 | 362 ft | 2 kts | 47° |
| 2026-04-27 11:21 | 45.45454 | 9.27784 | 362 ft | 4 kts | 47° |
| 2026-04-27 11:21 | 45.45460 | 9.27826 | 360 ft | 5 kts | 91° |
| 2026-04-27 11:21 | 45.45459 | 9.27894 | 359 ft | 10 kts | 91° |
| 2026-04-27 11:21 | 45.45508 | 9.27976 | 361 ft | 13 kts | 2° |
| 2026-04-27 11:22 | 45.45604 | 9.27980 | 359 ft | 17 kts | 1° |
| 2026-04-27 11:22 | 45.45737 | 9.27981 | 359 ft | 18 kts | 1° |
| 2026-04-27 11:22 | 45.45812 | 9.28001 | 365 ft | 5 kts | 60° |
| 2026-04-27 11:22 | 45.45808 | 9.28054 | 365 ft | 4 kts | 93° |
| 2026-04-27 11:23 | 45.45808 | 9.28067 | 365 ft | 0 kts | 91° |
| 2026-04-27 11:23 | 45.45808 | 9.28069 | 365 ft | 0 kts | 91° |